createdAt,value
2022-08-05T00:01:35.481Z,25.70
2022-08-05T00:04:15.405Z,25.70
2022-08-05T00:06:43.181Z,25.60
2022-08-05T00:09:12.726Z,25.60
2022-08-05T00:11:48.335Z,25.50
2022-08-05T00:14:17.025Z,25.50
2022-08-05T00:16:52.699Z,25.50
2022-08-05T00:19:22.452Z,25.50
2022-08-05T00:21:49.543Z,25.40
2022-08-05T00:24:19.242Z,25.40
2022-08-05T00:26:52.873Z,25.40
2022-08-05T00:29:22.817Z,25.30
2022-08-05T00:32:12.571Z,25.30
2022-08-05T00:34:55.989Z,25.20
2022-08-05T00:37:35.770Z,25.10
2022-08-05T00:40:14.415Z,25.10
2022-08-05T00:42:49.149Z,25.10
2022-08-05T00:45:16.887Z,25.10
2022-08-05T00:47:57.708Z,25.10
2022-08-05T00:50:32.597Z,25.00
2022-08-05T00:52:59.286Z,25.00
2022-08-05T00:55:42.227Z,25.00
2022-08-05T00:58:11.527Z,24.90
2022-08-05T01:00:38.534Z,24.90
2022-08-05T01:03:07.960Z,24.80
2022-08-05T01:05:35.041Z,24.80
2022-08-05T01:08:31.622Z,24.80
2022-08-05T01:10:52.736Z,24.70
2022-08-05T01:13:57.494Z,24.70
2022-08-05T01:16:29.072Z,24.80
2022-08-05T01:19:00.792Z,24.80
2022-08-05T01:21:42.798Z,24.90
2022-08-05T01:24:26.071Z,24.90
2022-08-05T01:27:00.875Z,25.00
2022-08-05T01:29:47.099Z,25.00
2022-08-05T01:32:18.525Z,25.10
2022-08-05T01:34:51.027Z,25.10
2022-08-05T01:37:25.031Z,25.10
2022-08-05T01:39:58.631Z,25.10
2022-08-05T01:42:26.620Z,25.10
2022-08-05T01:44:56.008Z,25.10
2022-08-05T01:47:24.303Z,25.20
2022-08-05T01:50:07.348Z,25.20
2022-08-05T01:52:42.215Z,25.30
2022-08-05T01:55:09.986Z,25.30
2022-08-05T01:58:29.392Z,25.30
2022-08-05T02:00:30.644Z,25.40
2022-08-05T02:02:59.947Z,25.40
2022-08-05T02:05:34.078Z,25.40
2022-08-05T02:08:01.984Z,25.40
2022-08-05T02:10:32.814Z,25.40
2022-08-05T02:13:03.091Z,25.40
2022-08-05T02:15:35.177Z,25.40
2022-08-05T02:18:30.963Z,25.40
2022-08-05T02:20:58.692Z,25.30
2022-08-05T02:23:29.036Z,25.30
2022-08-05T02:26:02.632Z,25.30
2022-08-05T02:28:33.034Z,25.30
2022-08-05T02:31:14.831Z,25.30
2022-08-05T02:33:44.956Z,25.30
2022-08-05T02:36:17.560Z,25.20
2022-08-05T02:38:53.613Z,25.20
2022-08-05T02:41:21.474Z,25.20
2022-08-05T02:44:02.992Z,25.20
2022-08-05T02:46:53.264Z,25.20
2022-08-05T02:49:35.791Z,25.20
2022-08-05T02:52:05.258Z,25.20
2022-08-05T02:54:36.263Z,25.20
2022-08-05T02:58:11.047Z,25.20
2022-08-05T02:59:57.567Z,25.20
2022-08-05T03:02:29.871Z,25.30
2022-08-05T03:04:57.867Z,25.20
2022-08-05T03:07:59.212Z,25.20
2022-08-05T03:10:14.996Z,25.20
2022-08-05T03:12:41.722Z,25.20
2022-08-05T03:15:12.291Z,25.20
2022-08-05T03:17:41.598Z,25.20
2022-08-05T03:20:09.209Z,25.20
2022-08-05T03:22:37.018Z,25.10
2022-08-05T03:25:33.724Z,25.10
2022-08-05T03:28:00.008Z,25.10
2022-08-05T03:30:30.241Z,25.00
2022-08-05T03:33:05.696Z,25.00
2022-08-05T03:35:40.917Z,25.00
2022-08-05T03:38:10.431Z,25.00
2022-08-05T03:40:39.936Z,24.90
2022-08-05T03:43:15.937Z,24.90
2022-08-05T03:45:57.513Z,24.80
2022-08-05T03:48:27.027Z,24.80
2022-08-05T03:52:50.203Z,24.70
2022-08-05T03:56:01.971Z,24.70
2022-08-05T03:57:16.865Z,24.60
2022-08-05T04:00:00.179Z,24.50
2022-08-05T04:02:39.182Z,24.40
2022-08-05T04:05:12.480Z,24.40
2022-08-05T04:07:57.510Z,24.30
2022-08-05T04:10:32.006Z,24.30
2022-08-05T04:13:00.425Z,24.20
2022-08-05T04:15:33.249Z,24.20
2022-08-05T04:18:06.981Z,24.10
2022-08-05T04:20:34.629Z,24.00
2022-08-05T04:23:01.697Z,24.00
2022-08-05T04:25:57.780Z,23.90
2022-08-05T04:28:15.177Z,23.90
2022-08-05T04:30:44.390Z,23.90
2022-08-05T04:33:12.295Z,23.90
2022-08-05T04:36:16.764Z,23.90
2022-08-05T04:38:39.168Z,23.80
2022-08-05T04:41:07.340Z,23.80
2022-08-05T04:43:36.327Z,23.80
2022-08-05T04:46:05.021Z,23.80
2022-08-05T04:48:32.058Z,23.80
2022-08-05T04:51:03.044Z,23.80
2022-08-05T04:53:38.907Z,23.80
2022-08-05T04:56:33.173Z,23.80
2022-08-05T04:58:54.231Z,23.80
2022-08-05T05:02:06.075Z,23.80
2022-08-05T05:04:07.724Z,23.70
2022-08-05T05:06:44.308Z,23.70
2022-08-05T05:09:17.613Z,23.70
2022-08-05T05:11:52.859Z,23.80
2022-08-05T05:14:31.601Z,23.80
2022-08-05T05:17:00.007Z,23.80
2022-08-05T05:19:36.358Z,23.90
2022-08-05T05:22:03.647Z,23.90
2022-08-05T05:24:59.025Z,24.00
2022-08-05T05:27:41.156Z,24.10
2022-08-05T05:30:15.294Z,24.20
2022-08-05T05:33:03.862Z,24.20
2022-08-05T05:35:58.822Z,24.20
2022-08-05T05:38:34.229Z,24.30
2022-08-05T05:41:01.070Z,24.30
2022-08-05T05:43:58.226Z,24.40
2022-08-05T05:46:21.760Z,24.40
2022-08-05T05:48:56.468Z,24.40
2022-08-05T05:51:24.101Z,24.40
2022-08-05T05:54:00.954Z,24.50
2022-08-05T05:56:33.110Z,24.50
2022-08-05T05:59:06.921Z,24.60
2022-08-05T06:01:57.843Z,24.60
2022-08-05T06:04:26.311Z,24.60
2022-08-05T06:06:53.461Z,24.70
2022-08-05T06:09:25.858Z,24.70
2022-08-05T06:12:06.194Z,24.60
2022-08-05T06:14:36.427Z,24.70
2022-08-05T06:17:31.826Z,24.60
2022-08-05T06:20:21.348Z,24.60
2022-08-05T06:22:53.378Z,24.60
2022-08-05T06:25:24.520Z,24.60
2022-08-05T06:28:21.665Z,24.60
2022-08-05T06:30:51.855Z,24.60
2022-08-05T06:33:19.449Z,24.70
2022-08-05T06:36:07.538Z,24.70
2022-08-05T06:38:40.043Z,24.80
2022-08-05T06:41:16.639Z,24.90
2022-08-05T06:43:57.926Z,24.90
2022-08-05T06:46:30.335Z,25.00
2022-08-05T06:49:01.124Z,25.10
2022-08-05T06:51:30.782Z,25.10
2022-08-05T06:54:01.841Z,25.10
2022-08-05T06:56:29.774Z,25.20
2022-08-05T06:58:56.667Z,25.20
2022-08-05T07:01:32.042Z,25.20
2022-08-05T07:04:00.347Z,25.30
2022-08-05T07:06:30.269Z,25.30
2022-08-05T07:09:08.651Z,25.30
2022-08-05T07:11:37.296Z,25.30
2022-08-05T07:14:30.202Z,25.40
2022-08-05T07:18:00.823Z,25.40
2022-08-05T07:22:42.204Z,25.50
2022-08-05T07:25:55.552Z,25.50
2022-08-05T07:28:05.960Z,25.50
2022-08-05T07:30:50.291Z,25.50
2022-08-05T07:33:36.464Z,25.60
2022-08-05T07:36:20.772Z,25.60
2022-08-05T07:38:48.984Z,25.70
2022-08-05T07:42:13.354Z,25.70
2022-08-05T07:44:14.449Z,25.70
2022-08-05T07:46:49.758Z,25.80
2022-08-05T07:49:22.802Z,25.80
2022-08-05T07:51:54.483Z,25.80
2022-08-05T07:54:31.684Z,25.90
2022-08-05T07:57:17.679Z,25.80
2022-08-05T07:59:56.977Z,25.90
2022-08-05T08:02:31.186Z,25.90
2022-08-05T08:05:16.336Z,25.90
2022-08-05T08:07:59.828Z,26.00
2022-08-05T08:10:33.275Z,25.90
2022-08-05T08:13:00.667Z,26.00
2022-08-05T08:16:35.713Z,26.00
2022-08-05T08:18:25.834Z,25.90
2022-08-05T08:21:01.950Z,26.00
2022-08-05T08:24:01.800Z,26.00
2022-08-05T08:26:26.880Z,26.10
2022-08-05T08:29:21.698Z,26.10
2022-08-05T08:31:48.344Z,26.20
2022-08-05T08:34:30.187Z,26.20
2022-08-05T08:37:05.669Z,26.20
2022-08-05T08:39:32.950Z,26.20
2022-08-05T08:42:32.284Z,26.30
2022-08-05T08:45:22.914Z,26.40
2022-08-05T08:48:06.804Z,26.40
2022-08-05T08:51:03.772Z,26.40
2022-08-05T08:53:21.421Z,26.40
2022-08-05T08:56:04.620Z,26.50
2022-08-05T08:58:43.524Z,26.40
2022-08-05T09:01:18.511Z,26.40
2022-08-05T09:03:55.650Z,26.40
2022-08-05T09:06:29.162Z,26.40
2022-08-05T09:08:58.330Z,26.40
2022-08-05T09:11:50.789Z,26.40
2022-08-05T09:14:58.676Z,26.50
2022-08-05T09:17:40.028Z,26.50
2022-08-05T09:20:05.286Z,26.50
2022-08-05T09:22:53.358Z,26.50
2022-08-05T09:26:02.879Z,26.50
2022-08-05T09:28:32.271Z,26.60
2022-08-05T09:31:23.318Z,26.60
2022-08-05T09:34:13.012Z,26.70
2022-08-05T09:36:54.449Z,26.70
2022-08-05T09:39:41.571Z,26.70
2022-08-05T09:42:24.343Z,26.70
2022-08-05T09:44:56.778Z,26.70
2022-08-05T09:47:48.119Z,26.80
2022-08-05T09:50:37.411Z,26.80
2022-08-05T09:53:26.221Z,26.80
2022-08-05T09:56:04.947Z,26.90
2022-08-05T09:58:41.683Z,26.90
2022-08-05T10:01:15.350Z,26.90
2022-08-05T10:04:00.678Z,27.00
2022-08-05T10:06:28.318Z,27.00
2022-08-05T10:08:59.864Z,27.00
2022-08-05T10:11:35.109Z,27.00
2022-08-05T10:14:20.648Z,27.10
2022-08-05T10:16:52.466Z,27.10
2022-08-05T10:19:23.540Z,27.10
2022-08-05T10:22:01.801Z,27.10
2022-08-05T10:24:32.910Z,27.20
2022-08-05T10:27:07.939Z,27.10
2022-08-05T10:30:07.038Z,27.20
2022-08-05T10:32:51.665Z,27.20
2022-08-05T10:35:16.369Z,27.30
2022-08-05T10:37:49.738Z,27.30
2022-08-05T10:40:44.915Z,27.40
2022-08-05T10:43:40.909Z,27.40
2022-08-05T10:46:16.873Z,27.40
2022-08-05T10:48:58.164Z,27.50
2022-08-05T10:51:57.601Z,27.50
2022-08-05T10:54:55.887Z,27.50
2022-08-05T10:57:31.800Z,27.50
2022-08-05T11:00:09.088Z,27.50
2022-08-05T11:03:25.628Z,27.60
2022-08-05T11:06:08.477Z,27.70
2022-08-05T11:09:09.393Z,27.80
2022-08-05T11:11:52.530Z,27.90
2022-08-05T11:15:01.214Z,27.90
2022-08-05T11:31:57.341Z,28.30
2022-08-05T11:44:53.840Z,28.40
2022-08-05T11:47:48.220Z,28.50
2022-08-05T11:50:23.588Z,28.60
2022-08-05T11:56:40.787Z,28.70
2022-08-05T12:03:32.022Z,28.80
2022-08-05T12:16:17.557Z,29.30
2022-08-05T12:20:26.289Z,29.40
2022-08-05T12:26:44.081Z,29.60
2022-08-05T12:30:18.114Z,29.80
2022-08-05T12:36:44.844Z,29.90
2022-08-05T12:47:07.219Z,30.20
2022-08-05T12:50:03.016Z,30.20
2022-08-05T12:52:39.190Z,30.30
2022-08-05T12:55:57.498Z,30.30
2022-08-05T12:59:13.913Z,30.40
2022-08-05T13:02:07.184Z,30.40
2022-08-05T13:04:41.612Z,30.40
2022-08-05T13:21:47.809Z,30.50
2022-08-05T13:24:57.626Z,31.00
2022-08-05T13:27:50.186Z,31.00
2022-08-05T13:30:35.674Z,30.90
2022-08-05T13:33:06.233Z,31.00
2022-08-05T13:35:51.395Z,30.90
2022-08-05T13:38:30.704Z,30.90
2022-08-05T13:41:25.808Z,30.80
2022-08-05T13:44:29.647Z,30.80
2022-08-05T13:47:04.732Z,30.90
2022-08-05T13:49:35.849Z,30.90
2022-08-05T13:52:13.721Z,31.00
2022-08-05T13:54:41.183Z,31.00
2022-08-05T13:57:12.734Z,31.00
2022-08-05T14:00:11.532Z,31.10
2022-08-05T14:03:04.575Z,31.00
2022-08-05T14:06:25.605Z,31.00
2022-08-05T14:09:18.663Z,31.00
2022-08-05T14:15:00.963Z,30.90
2022-08-05T14:18:02.416Z,30.70
2022-08-05T14:20:31.233Z,30.60
2022-08-05T14:23:06.625Z,30.40
2022-08-05T14:25:33.605Z,30.30
2022-08-05T14:28:05.855Z,30.20
2022-08-05T14:30:33.162Z,30.00
2022-08-05T14:33:05.981Z,29.90
2022-08-05T14:35:37.226Z,29.90
2022-08-05T14:38:36.492Z,29.80
2022-08-05T14:42:19.674Z,29.70
2022-08-05T14:44:39.445Z,29.60
2022-08-05T14:50:35.976Z,29.50
2022-08-05T14:53:16.305Z,29.40
2022-08-05T14:55:43.156Z,29.30
2022-08-05T14:58:47.906Z,29.30
2022-08-05T15:01:48.115Z,29.30
2022-08-05T15:04:28.882Z,29.30
2022-08-05T15:08:05.476Z,29.10
2022-08-05T15:10:01.596Z,28.90
2022-08-05T15:12:57.671Z,28.90
2022-08-05T15:15:55.468Z,28.90
2022-08-05T15:18:26.206Z,28.70
2022-08-05T15:20:56.149Z,28.30
2022-08-05T15:23:34.111Z,28.20
2022-08-05T15:26:31.782Z,28.10
2022-08-05T15:28:59.191Z,28.10
2022-08-05T15:31:34.567Z,28.20
2022-08-05T15:34:32.490Z,28.20
2022-08-05T15:37:00.521Z,28.30
2022-08-05T15:41:02.132Z,28.50
2022-08-05T15:42:53.666Z,28.80
2022-08-05T15:45:14.718Z,29.00
2022-08-05T15:47:43.032Z,29.30
2022-08-05T15:50:37.327Z,29.60
2022-08-05T15:53:05.695Z,29.90
2022-08-05T15:56:03.044Z,30.10
2022-08-05T15:59:24.119Z,30.20
2022-08-05T16:02:02.866Z,30.40
2022-08-05T16:04:49.260Z,30.50
2022-08-05T16:07:25.734Z,30.50
2022-08-05T16:10:25.585Z,30.50
2022-08-05T16:13:13.737Z,30.50
2022-08-05T16:15:51.865Z,30.50
2022-08-05T16:18:19.103Z,30.30
2022-08-05T16:20:51.895Z,30.20
2022-08-05T16:23:18.761Z,30.20
2022-08-05T16:26:13.654Z,30.10
2022-08-05T16:28:41.363Z,29.90
2022-08-05T16:31:56.186Z,29.80
2022-08-05T16:34:36.408Z,29.50
2022-08-05T16:38:02.845Z,29.30
2022-08-05T16:40:26.730Z,29.00
2022-08-05T16:43:23.463Z,29.00
2022-08-05T16:46:12.813Z,29.20
2022-08-05T16:48:50.964Z,29.30
2022-08-05T16:51:21.649Z,29.30
2022-08-05T16:54:28.608Z,29.20
2022-08-05T16:57:06.662Z,29.10
2022-08-05T16:59:49.618Z,29.10
2022-08-05T17:02:28.838Z,29.00
2022-08-05T17:04:57.051Z,29.00
2022-08-05T17:07:38.984Z,29.00
2022-08-05T17:10:14.547Z,29.00
2022-08-05T17:12:51.219Z,29.00
2022-08-05T17:15:19.446Z,28.80
2022-08-05T17:17:55.015Z,28.70
2022-08-05T17:20:22.294Z,28.60
2022-08-05T17:24:06.032Z,28.50
2022-08-05T17:26:13.537Z,28.30
2022-08-05T17:28:42.031Z,28.10
2022-08-05T17:31:24.512Z,27.90
2022-08-05T17:34:03.275Z,27.70
2022-08-05T17:36:40.763Z,27.40
2022-08-05T17:39:24.305Z,27.20
2022-08-05T17:42:19.658Z,27.00
2022-08-05T17:44:50.727Z,26.80
2022-08-05T17:47:23.013Z,26.70
2022-08-05T17:50:00.270Z,26.50
2022-08-05T17:52:32.208Z,26.40
2022-08-05T17:55:07.890Z,26.30
2022-08-05T17:57:34.976Z,26.20
2022-08-05T18:00:12.065Z,26.20
2022-08-05T18:02:49.815Z,26.10
2022-08-05T18:05:17.611Z,26.00
2022-08-05T18:07:49.797Z,26.00
2022-08-05T18:10:20.802Z,25.90
2022-08-05T18:12:53.631Z,25.90
2022-08-05T18:15:23.720Z,25.80
2022-08-05T18:17:58.890Z,25.70
2022-08-05T18:20:37.764Z,25.50
2022-08-05T18:23:11.522Z,25.40
2022-08-05T18:25:45.295Z,25.30
2022-08-05T18:28:22.153Z,25.10
2022-08-05T18:31:06.024Z,25.00
2022-08-05T18:33:46.796Z,24.90
2022-08-05T18:36:27.952Z,24.80
2022-08-05T18:39:01.393Z,24.80
2022-08-05T18:41:56.952Z,24.80
2022-08-05T18:44:15.182Z,24.70
2022-08-05T18:47:09.072Z,24.70
2022-08-05T18:50:11.173Z,24.70
2022-08-05T18:52:51.377Z,24.70
2022-08-05T18:55:19.163Z,24.70
2022-08-05T18:57:54.211Z,24.60
2022-08-05T19:00:37.723Z,24.60
2022-08-05T19:03:12.881Z,24.60
2022-08-05T19:06:11.363Z,24.50
2022-08-05T19:08:30.440Z,24.50
2022-08-05T19:11:02.791Z,24.50
2022-08-05T19:13:38.756Z,24.40
2022-08-05T19:19:00.480Z,24.20
2022-08-05T19:21:34.344Z,24.20
2022-08-05T19:24:34.488Z,24.10
2022-08-05T19:27:11.531Z,24.00
2022-08-05T19:29:43.568Z,23.90
2022-08-05T19:32:11.846Z,23.90
2022-08-05T19:34:54.616Z,23.80
2022-08-05T19:37:47.407Z,23.80
2022-08-05T19:40:27.595Z,23.70
2022-08-05T19:43:04.501Z,23.60
2022-08-05T19:45:39.891Z,23.60
2022-08-05T19:48:22.595Z,23.60
2022-08-05T19:52:05.364Z,23.50
2022-08-05T19:54:31.944Z,23.50
2022-08-05T19:56:59.551Z,23.40
2022-08-05T19:59:55.225Z,23.40
2022-08-05T20:02:17.588Z,23.30
2022-08-05T20:04:46.079Z,23.20
2022-08-05T20:07:14.012Z,23.10
2022-08-05T20:09:55.109Z,23.10
2022-08-05T20:12:24.887Z,23.00
2022-08-05T20:14:53.003Z,22.90
2022-08-05T20:17:23.665Z,22.80
2022-08-05T20:19:56.766Z,22.80
2022-08-05T20:22:26.723Z,22.60
2022-08-05T20:24:55.698Z,22.60
2022-08-05T20:27:27.002Z,22.50
2022-08-05T20:29:58.946Z,22.40
2022-08-05T20:32:27.187Z,22.40
2022-08-05T20:34:54.546Z,22.30
2022-08-05T20:38:04.873Z,22.30
2022-08-05T20:40:09.214Z,22.30
2022-08-05T20:42:36.235Z,22.20
2022-08-05T20:45:05.270Z,22.20
2022-08-05T20:47:33.235Z,22.20
2022-08-05T20:50:02.002Z,22.20
2022-08-05T20:52:29.641Z,22.10
2022-08-05T20:55:15.892Z,22.00
2022-08-05T20:57:45.033Z,22.00
2022-08-05T21:00:40.831Z,22.00
2022-08-05T21:03:06.107Z,22.00
2022-08-05T21:05:47.467Z,22.00
2022-08-05T21:08:15.460Z,22.00
2022-08-05T21:10:48.690Z,22.00
2022-08-05T21:13:35.095Z,22.00
2022-08-05T21:16:03.549Z,22.00
2022-08-05T21:18:30.756Z,22.00
2022-08-05T21:20:57.595Z,22.00
2022-08-05T21:23:24.734Z,22.00
2022-08-05T21:25:51.842Z,22.00
2022-08-05T21:28:23.741Z,22.00
2022-08-05T21:30:51.030Z,21.90
2022-08-05T21:33:22.365Z,21.90
2022-08-05T21:35:58.172Z,21.90
2022-08-05T21:38:27.641Z,21.90
2022-08-05T21:40:54.467Z,21.90
2022-08-05T21:43:24.745Z,21.90
2022-08-05T21:45:57.759Z,21.90
2022-08-05T21:48:27.941Z,21.80
2022-08-05T21:50:55.568Z,21.80
2022-08-05T21:53:27.292Z,21.70
2022-08-05T21:56:05.098Z,21.70
2022-08-05T21:58:42.379Z,21.60
2022-08-05T22:01:10.668Z,21.60
2022-08-05T22:03:52.363Z,21.60
2022-08-05T22:06:22.346Z,21.60
2022-08-05T22:08:52.148Z,21.50
2022-08-05T22:11:34.660Z,21.50
2022-08-05T22:14:31.450Z,21.40
2022-08-05T22:16:51.795Z,21.50
2022-08-05T22:20:02.477Z,21.50
2022-08-05T22:22:07.411Z,21.50
2022-08-05T22:24:55.915Z,21.50
2022-08-05T22:28:04.854Z,21.50
2022-08-05T22:30:34.875Z,21.50
2022-08-05T22:33:02.977Z,21.40
2022-08-05T22:35:31.111Z,21.40
2022-08-05T22:38:15.070Z,21.40
2022-08-05T22:40:42.051Z,21.30
2022-08-05T22:43:16.529Z,21.30
2022-08-05T22:46:08.847Z,21.30
2022-08-05T22:48:41.892Z,21.30
2022-08-05T22:51:15.626Z,21.30
2022-08-05T22:53:50.486Z,21.30
2022-08-05T22:56:30.753Z,21.40
2022-08-05T22:59:04.094Z,21.40
2022-08-05T23:02:04.858Z,21.40
2022-08-05T23:04:33.253Z,21.30
2022-08-05T23:07:00.055Z,21.30
2022-08-05T23:09:52.756Z,21.30
2022-08-05T23:12:13.603Z,21.20
2022-08-05T23:14:40.447Z,21.20
2022-08-05T23:17:34.315Z,21.10
2022-08-05T23:20:10.117Z,21.10
2022-08-05T23:22:44.154Z,21.00
2022-08-05T23:25:50.158Z,21.00
2022-08-05T23:28:02.499Z,21.00
2022-08-05T23:30:31.321Z,20.90
2022-08-05T23:32:58.911Z,20.80
2022-08-05T23:35:28.677Z,20.80
2022-08-05T23:38:01.377Z,20.80
2022-08-05T23:40:28.208Z,20.80
2022-08-05T23:42:55.063Z,20.80
2022-08-05T23:45:23.641Z,20.80
2022-08-05T23:47:53.874Z,20.70
2022-08-05T23:50:26.620Z,20.70
2022-08-05T23:52:55.328Z,20.80
2022-08-05T23:55:22.618Z,20.70
2022-08-05T23:57:57.851Z,20.70
